Mount Hermon, KY (42157)

12:01 AM CDT on July 12, 2014 (GMT -0500)
Scout Reservation (KKYTEMPL1) Elev 780 ft | 36.90 °N, 85.88 °W | Change Station

Current weather conditions updated 18 seconds ago

Clear
Clear
71.4 °F
Feels Like 74 °F
N
0.0
Wind Variable Wind from SW
Gusts 0.0 mph

Today is forecast to be Warmer than yesterday.

Today
High -- | Low -- °F
--% Chance of Precip.
Yesterday
High -- | Low -- °F
Precip. -- in
5:34 AM 8:03 PM
Full, 100% visible
Pressure 30.18 in
Visibility 10.0 miles
Clouds Clear
Heat Index 74 °F
Dew Point 62 °F
Humidity 73%
Rainfall 0.00 in
Snow Depth Not available.
UV 0 out of 12
Pollen 3.00 out of 12
Air Quality Not available.
Flu Activity Sporadic
METAR KGLW 120435Z AUTO 00000KT 10SM CLR 20/16 A3018 RMK AO2 T01970164

More Conditions Fewer Conditions

Pressure 30.18 in
Visibility 10.0 miles
Clouds Clear
Heat Index 74 °F
Dew Point 62 °F
Humidity 73%
Rainfall 0.00 in
Snow Depth Not available.
UV 0 out of 12
Pollen 3.00 out of 12
Air Quality Not available.
Flu Activity Sporadic
METAR KGLW 120435Z AUTO 00000KT 10SM CLR 20/16 A3018 RMK AO2 T01970164

More Conditions Fewer Conditions

10-Day Weather Forecast

Almanac

Astronomy

Jul. 12, 2014 Rise Set
Actual Time 5:34 AM CDT 8:03 PM CDT
Civil Twilight 5:03 AM CDT 8:33 PM CDT
Nautical Twilight 4:26 AM CDT 9:10 PM CDT
Astronomical Twilight 3:45 AM CDT 9:52 PM CDT
Moon 8:08 PM CDT 5:50 AM CDT
Length of Visible Light 15h 29m
Length of Day
14h 29m
Tomorrow will be 1m 4s shorter.
Full, 100% of the Moon is Illuminated
Today
Full
Jul 12
Full
Jul 18
Last Quarter
Jul 26
New
Aug 3
First Quarter

Today's Extremes

State Highs State Lows

Community

WunderPhotos

Upload Photos

1,732,711 photos uploaded!

Nearby

Snow Depth

Station Depth Elevation
No new snow has been reported.

Earthquake Activity

City Distance Mag. Time & Date
No recent earthquake activity has been reported nearby.
Minimum magnitude displayed is 2.5.

Coastal Water Temperatures

Place Temperature
No Stations Reporting

Nearby Weather Stations

Station Location Temp. Heat Index Dew Point Humidity Wind Precip. Elev Updated Type
Scout Reservation, Temple Hill, KY 71.4 °F 74 °F 62 °F 73% SW  at  0.0 mph 0.00 in / hr 780 ft 12:01 AM CDT Rapid Fire
Park City Glasgow Rd., Glasgow, KY 65.9 °F - 64 °F 93% North  at  0.0 mph 0.00 in / hr 736 ft 12:01 AM CDT Rapid Fire
Pumpkintown, Red Boiling Springs, TN 65.7 °F - 64 °F 95% West  at  0.0 mph 0.00 in / hr 902 ft 12:56 AM EDT Normal
Center Point Ky, Tompkinsville, KY 68.2 °F - 64 °F 86% North  at  0.0 mph - / hr 740 ft 12:01 AM CDT Normal
Cave City, KY 68.1 °F - 66 °F 92% WNW  at  0.0 mph 0.00 in / hr 695 ft 12:00 AM CDT Normal
RAWS LAYFAYETTE WORK CENTER TN, Lafayette, TN 70 °F - 64 °F 81% SE  at  1 mph 0.00 in / hr 970 ft 11:06 PM CDT MADIS

Show More Stations Show Fewer Stations